createdAt,value
2023-02-21T00:01:35.079Z,44.68
2023-02-21T00:04:19.801Z,44.74
2023-02-21T00:07:04.690Z,44.93
2023-02-21T00:09:49.251Z,44.93
2023-02-21T00:12:34.066Z,44.89
2023-02-21T00:15:18.917Z,44.92
2023-02-21T00:18:03.668Z,45.00
2023-02-21T00:20:48.428Z,44.99
2023-02-21T00:23:33.347Z,45.09
2023-02-21T00:26:17.924Z,45.00
2023-02-21T00:29:02.785Z,44.83
2023-02-21T00:31:47.748Z,44.99
2023-02-21T00:34:32.290Z,45.08
2023-02-21T00:37:17.232Z,44.99
2023-02-21T00:40:02.038Z,44.93
2023-02-21T00:42:46.907Z,45.08
2023-02-21T00:45:31.475Z,45.05
2023-02-21T00:48:16.559Z,45.10
2023-02-21T00:51:01.261Z,45.10
2023-02-21T00:53:45.739Z,45.04
2023-02-21T00:56:30.568Z,44.97
2023-02-21T00:59:15.027Z,44.88
2023-02-21T01:02:00.139Z,44.93
2023-02-21T01:04:44.853Z,45.02
2023-02-21T01:07:31.788Z,45.05
2023-02-21T01:10:16.475Z,44.92
2023-02-21T01:13:01.084Z,44.88
2023-02-21T01:15:45.436Z,44.99
2023-02-21T01:18:31.148Z,44.94
2023-02-21T01:21:16.063Z,44.97
2023-02-21T01:24:00.852Z,45.16
2023-02-21T01:26:45.932Z,45.22
2023-02-21T01:29:30.420Z,45.15
2023-02-21T01:32:14.755Z,45.35
2023-02-21T01:34:59.517Z,45.63
2023-02-21T01:37:43.813Z,45.50
2023-02-21T01:40:33.827Z,45.58
2023-02-21T01:43:20.167Z,45.69
2023-02-21T01:46:07.560Z,45.58
2023-02-21T01:48:53.932Z,45.54
2023-02-21T01:51:44.982Z,45.81
2023-02-21T01:54:29.894Z,45.90
2023-02-21T01:57:17.269Z,45.95
2023-02-21T02:00:02.591Z,46.12
2023-02-21T02:03:15.833Z,46.08
2023-02-21T02:06:04.177Z,46.25
2023-02-21T02:08:51.458Z,46.18
2023-02-21T02:12:04.993Z,46.30
2023-02-21T02:14:39.762Z,46.30
2023-02-21T02:17:24.438Z,46.46
2023-02-21T02:20:23.812Z,46.46
2023-02-21T02:23:11.322Z,46.29
2023-02-21T02:26:10.657Z,46.48
2023-02-21T02:28:45.682Z,46.64
2023-02-21T02:31:30.537Z,46.49
2023-02-21T02:34:17.325Z,46.39
2023-02-21T02:36:52.942Z,46.45
2023-02-21T02:39:31.420Z,46.26
2023-02-21T02:42:14.061Z,46.16
2023-02-21T02:44:44.541Z,46.25
2023-02-21T02:47:22.903Z,46.27
2023-02-21T02:49:51.708Z,46.16
2023-02-21T02:52:17.896Z,46.28
2023-02-21T02:54:43.991Z,46.30
2023-02-21T02:57:12.515Z,46.41
2023-02-21T02:59:43.505Z,46.40
2023-02-21T03:02:36.415Z,46.26
2023-02-21T03:05:05.359Z,46.42
2023-02-21T03:07:43.416Z,46.41
2023-02-21T03:10:18.238Z,46.38
2023-02-21T03:12:54.962Z,46.58
2023-02-21T03:15:26.439Z,46.45
2023-02-21T03:18:18.352Z,46.52
2023-02-21T03:20:48.472Z,46.66
2023-02-21T03:23:17.717Z,46.79
2023-02-21T03:25:46.325Z,46.86
2023-02-21T03:28:13.360Z,46.99
2023-02-21T03:30:44.209Z,46.92
2023-02-21T03:33:10.937Z,46.96
2023-02-21T03:35:37.629Z,47.05
2023-02-21T03:38:04.420Z,47.17
2023-02-21T03:40:33.141Z,47.06
2023-02-21T03:43:01.934Z,47.13
2023-02-21T03:45:31.670Z,47.08
2023-02-21T03:48:30.995Z,47.01
2023-02-21T03:50:59.988Z,47.04
2023-02-21T03:53:28.951Z,47.06
2023-02-21T03:55:55.320Z,46.96
2023-02-21T03:58:25.957Z,46.94
2023-02-21T04:00:53.292Z,46.92
2023-02-21T04:03:23.224Z,46.88
2023-02-21T04:05:55.197Z,46.69
2023-02-21T04:08:21.393Z,46.63
2023-02-21T04:10:52.479Z,46.76
2023-02-21T04:13:23.082Z,46.71
2023-02-21T04:15:49.737Z,46.68
2023-02-21T04:18:16.708Z,46.74
2023-02-21T04:20:46.196Z,46.71
2023-02-21T04:23:19.397Z,46.85
2023-02-21T04:25:45.738Z,46.87
2023-02-21T04:28:15.921Z,46.85
2023-02-21T04:30:42.060Z,46.74
2023-02-21T04:33:08.363Z,46.79
2023-02-21T04:35:34.672Z,46.81
2023-02-21T04:38:06.354Z,46.84
2023-02-21T04:40:32.411Z,46.79
2023-02-21T04:42:58.497Z,46.94
2023-02-21T04:45:25.096Z,47.02
2023-02-21T04:47:51.238Z,46.92
2023-02-21T04:50:17.588Z,46.98
2023-02-21T04:52:43.825Z,47.00
2023-02-21T04:55:09.941Z,47.10
2023-02-21T04:57:36.232Z,47.06
2023-02-21T05:00:06.680Z,47.22
2023-02-21T05:02:33.050Z,47.34
2023-02-21T05:04:59.426Z,47.42
2023-02-21T05:07:25.539Z,47.63
2023-02-21T05:09:51.757Z,47.58
2023-02-21T05:12:17.838Z,47.74
2023-02-21T05:14:43.925Z,47.81
2023-02-21T05:17:10.232Z,47.89
2023-02-21T05:19:36.414Z,47.97
2023-02-21T05:22:02.922Z,47.84
2023-02-21T05:24:30.372Z,47.94
2023-02-21T05:26:57.257Z,48.05
2023-02-21T05:29:24.005Z,48.06
2023-02-21T05:31:50.221Z,47.91
2023-02-21T05:34:18.999Z,48.16
2023-02-21T05:36:45.655Z,47.94
2023-02-21T05:39:11.747Z,48.07
2023-02-21T05:41:38.059Z,48.16
2023-02-21T05:44:04.734Z,48.13
2023-02-21T05:46:34.057Z,47.68
2023-02-21T05:49:03.603Z,46.97
2023-02-21T05:51:38.457Z,46.49
2023-02-21T05:54:06.927Z,46.04
2023-02-21T05:56:40.644Z,45.37
2023-02-21T05:59:06.910Z,44.59
2023-02-21T06:01:33.005Z,44.07
2023-02-21T06:03:59.243Z,43.78
2023-02-21T06:06:25.545Z,43.53
2023-02-21T06:08:51.650Z,42.62
2023-02-21T06:11:27.526Z,41.72
2023-02-21T06:13:56.133Z,40.69
2023-02-21T06:16:23.167Z,39.88
2023-02-21T06:18:53.431Z,38.72
2023-02-21T06:21:19.631Z,37.27
2023-02-21T06:23:46.173Z,35.87
2023-02-21T06:26:13.545Z,34.88
2023-02-21T06:28:39.690Z,33.61
2023-02-21T06:31:06.076Z,32.65
2023-02-21T06:33:32.642Z,32.00
2023-02-21T06:36:02.351Z,31.03
2023-02-21T06:38:28.478Z,30.67
2023-02-21T06:40:54.577Z,29.80
2023-02-21T06:43:20.742Z,29.19
2023-02-21T06:45:46.997Z,28.65
2023-02-21T06:48:16.555Z,27.98
2023-02-21T06:50:42.912Z,27.18
2023-02-21T06:53:09.091Z,26.56
2023-02-21T06:55:35.278Z,25.67
2023-02-21T06:58:01.432Z,25.06
2023-02-21T07:00:27.526Z,24.63
2023-02-21T07:02:53.657Z,24.35
2023-02-21T07:05:19.955Z,24.32
2023-02-21T07:07:46.184Z,23.48
2023-02-21T07:10:12.681Z,22.75
2023-02-21T07:12:39.534Z,22.14
2023-02-21T07:15:06.762Z,21.73
2023-02-21T07:17:32.962Z,21.44
2023-02-21T07:19:59.116Z,20.93
2023-02-21T07:22:28.244Z,20.60
2023-02-21T07:24:55.162Z,20.54
2023-02-21T07:27:21.835Z,21.01
2023-02-21T07:29:48.895Z,21.01
2023-02-21T07:32:18.200Z,21.24
2023-02-21T07:34:45.467Z,21.74
2023-02-21T07:37:12.791Z,21.50
2023-02-21T07:39:39.199Z,21.15
2023-02-21T07:42:07.288Z,21.13
2023-02-21T07:44:33.955Z,20.98
2023-02-21T07:47:00.108Z,20.79
2023-02-21T07:49:29.993Z,20.66
2023-02-21T07:51:57.228Z,20.69
2023-02-21T07:54:23.349Z,20.60
2023-02-21T07:56:49.545Z,20.63
2023-02-21T07:59:15.780Z,20.77
2023-02-21T08:01:42.042Z,20.97
2023-02-21T08:04:08.300Z,21.24
2023-02-21T08:06:35.112Z,21.63
2023-02-21T08:09:01.230Z,21.83
2023-02-21T08:11:27.463Z,22.20
2023-02-21T08:13:54.015Z,22.70
2023-02-21T08:16:20.171Z,22.98
2023-02-21T08:18:50.248Z,23.31
2023-02-21T08:21:19.529Z,24.03
2023-02-21T08:23:45.604Z,24.36
2023-02-21T08:26:11.708Z,24.50
2023-02-21T08:28:37.963Z,24.88
2023-02-21T08:31:04.554Z,25.55
2023-02-21T08:33:31.656Z,26.16
2023-02-21T08:35:57.994Z,26.35
2023-02-21T08:38:24.095Z,26.67
2023-02-21T08:40:50.926Z,27.16
2023-02-21T08:43:17.148Z,27.50
2023-02-21T08:45:43.223Z,27.97
2023-02-21T08:48:09.419Z,28.27
2023-02-21T08:50:35.552Z,28.32
2023-02-21T08:53:01.717Z,28.29
2023-02-21T08:55:27.851Z,28.03
2023-02-21T08:57:54.172Z,28.37
2023-02-21T09:00:23.606Z,28.50
2023-02-21T09:02:52.387Z,28.25
2023-02-21T09:05:24.028Z,28.36
2023-02-21T09:07:54.412Z,28.48
2023-02-21T09:10:21.319Z,28.74
2023-02-21T09:12:47.490Z,29.25
2023-02-21T09:15:15.307Z,28.89
2023-02-21T09:17:41.486Z,29.13
2023-02-21T09:20:10.106Z,29.81
2023-02-21T09:22:36.358Z,29.25
2023-02-21T09:25:03.352Z,28.90
2023-02-21T09:27:38.190Z,29.14
2023-02-21T09:30:07.668Z,28.97
2023-02-21T09:32:34.573Z,28.69
2023-02-21T09:35:00.913Z,28.58
2023-02-21T09:37:27.022Z,28.18
2023-02-21T09:39:53.410Z,27.37
2023-02-21T09:42:24.045Z,27.56
2023-02-21T09:44:51.016Z,27.40
2023-02-21T09:47:31.233Z,27.37
2023-02-21T09:50:06.521Z,27.21
2023-02-21T09:52:38.562Z,27.27
2023-02-21T09:55:12.609Z,26.87
2023-02-21T09:57:38.821Z,27.23
2023-02-21T10:00:46.510Z,27.14
2023-02-21T10:03:18.723Z,26.71
2023-02-21T10:05:57.425Z,26.28
2023-02-21T10:08:36.581Z,26.08
2023-02-21T10:11:41.013Z,26.24
2023-02-21T10:14:13.537Z,25.72
2023-02-21T10:16:50.864Z,25.53
2023-02-21T10:22:45.888Z,25.24
2023-02-21T10:25:24.275Z,25.44
2023-02-21T10:27:52.955Z,26.69
2023-02-21T10:30:40.272Z,27.01
2023-02-21T10:33:07.624Z,25.63
2023-02-21T10:35:37.510Z,25.27
2023-02-21T10:38:11.713Z,25.86
2023-02-21T10:40:37.876Z,25.20
2023-02-21T10:43:14.425Z,25.24
2023-02-21T10:45:47.203Z,25.94
2023-02-21T10:48:14.868Z,25.56
2023-02-21T10:51:05.393Z,24.24
2023-02-21T10:53:37.477Z,24.45
2023-02-21T10:56:16.073Z,24.44
2023-02-21T10:58:56.235Z,24.85
2023-02-21T11:01:25.481Z,25.01
2023-02-21T11:03:59.542Z,24.41
2023-02-21T11:06:38.060Z,25.23
2023-02-21T11:09:31.199Z,23.63
2023-02-21T11:12:15.423Z,23.42
2023-02-21T11:14:43.338Z,23.56
2023-02-21T11:17:16.562Z,23.90
2023-02-21T11:19:46.996Z,24.77
2023-02-21T11:22:14.831Z,24.71
2023-02-21T11:25:02.417Z,24.37
2023-02-21T11:27:31.293Z,23.63
2023-02-21T11:29:58.363Z,23.24
2023-02-21T11:32:26.976Z,22.83
2023-02-21T11:35:20.443Z,22.83
2023-02-21T11:37:56.067Z,22.68
2023-02-21T11:40:28.908Z,22.63
2023-02-21T11:43:30.352Z,22.46
2023-02-21T11:46:40.131Z,22.29
2023-02-21T11:49:36.769Z,22.54
2023-02-21T11:52:09.409Z,22.58
2023-02-21T11:54:35.567Z,22.71
2023-02-21T11:57:08.628Z,22.48
2023-02-21T11:59:52.307Z,22.76
2023-02-21T12:02:55.769Z,22.80
2023-02-21T12:06:00.211Z,22.73
2023-02-21T12:08:30.668Z,22.79
2023-02-21T12:11:05.855Z,22.55
2023-02-21T12:13:49.185Z,22.97
2023-02-21T12:16:19.757Z,23.06
2023-02-21T12:18:51.835Z,23.13
2023-02-21T12:21:36.358Z,22.94
2023-02-21T12:24:34.984Z,23.10
2023-02-21T12:27:41.524Z,23.01
2023-02-21T12:30:26.330Z,23.27
2023-02-21T12:33:07.319Z,23.32
2023-02-21T12:35:37.114Z,23.34
2023-02-21T12:38:06.615Z,23.32
2023-02-21T12:40:44.763Z,23.44
2023-02-21T12:43:38.603Z,23.48
2023-02-21T12:46:19.182Z,23.39
2023-02-21T12:49:16.713Z,23.44
2023-02-21T12:51:52.548Z,23.66
2023-02-21T12:54:25.982Z,23.46
2023-02-21T12:57:03.349Z,23.39
2023-02-21T12:59:36.543Z,23.60
2023-02-21T13:02:15.320Z,23.60
2023-02-21T13:05:02.272Z,23.97
2023-02-21T13:07:44.774Z,24.05
2023-02-21T13:10:19.315Z,24.02
2023-02-21T13:13:04.154Z,24.18
2023-02-21T13:15:30.744Z,23.92
2023-02-21T13:18:08.061Z,23.78
2023-02-21T13:20:39.595Z,23.97
2023-02-21T13:24:01.098Z,24.04
2023-02-21T13:26:53.005Z,24.12
2023-02-21T13:29:30.360Z,24.10
2023-02-21T13:32:07.143Z,24.00
2023-02-21T13:34:45.236Z,23.71
2023-02-21T13:37:20.669Z,23.69
2023-02-21T13:40:00.744Z,23.84
2023-02-21T13:42:29.467Z,23.95
2023-02-21T13:45:22.916Z,23.90
2023-02-21T13:47:59.323Z,24.08
2023-02-21T13:50:38.425Z,23.99
2023-02-21T13:53:12.573Z,24.00
2023-02-21T13:55:39.957Z,24.10
2023-02-21T13:58:06.765Z,23.96
2023-02-21T14:00:32.888Z,23.97
2023-02-21T14:03:05.718Z,24.02
2023-02-21T14:05:43.948Z,23.99
2023-02-21T14:08:29.170Z,24.02
2023-02-21T14:11:00.266Z,24.05
2023-02-21T14:13:40.185Z,24.19
2023-02-21T14:16:18.371Z,24.10
2023-02-21T14:19:07.032Z,23.96
2023-02-21T14:21:38.927Z,24.17
2023-02-21T14:24:20.302Z,23.98
2023-02-21T14:27:00.710Z,23.82
2023-02-21T14:29:31.177Z,23.64
2023-02-21T14:32:03.441Z,23.77
2023-02-21T14:34:37.416Z,23.67
2023-02-21T14:37:19.384Z,23.69
2023-02-21T14:39:52.569Z,23.73
2023-02-21T14:42:33.811Z,23.45
2023-02-21T14:45:11.719Z,23.38
2023-02-21T14:48:15.348Z,23.58
2023-02-21T14:51:06.278Z,23.50
2023-02-21T14:53:53.096Z,23.49
2023-02-21T14:56:58.178Z,23.54
2023-02-21T14:59:40.030Z,23.44
2023-02-21T15:02:25.101Z,23.40
2023-02-21T15:04:57.496Z,23.69
2023-02-21T15:07:41.550Z,23.62
2023-02-21T15:10:22.802Z,23.62
2023-02-21T15:12:55.921Z,23.77
2023-02-21T15:15:31.231Z,23.80
2023-02-21T15:18:02.510Z,23.63
2023-02-21T15:20:33.412Z,23.74
2023-02-21T15:23:28.870Z,23.78
2023-02-21T15:25:57.586Z,23.87
2023-02-21T15:28:32.206Z,23.89
2023-02-21T15:31:09.905Z,23.94
2023-02-21T15:33:38.649Z,24.15
2023-02-21T15:36:08.621Z,23.96
2023-02-21T15:38:49.605Z,24.04
2023-02-21T15:41:33.856Z,24.13
2023-02-21T15:44:05.220Z,24.02
2023-02-21T15:46:42.283Z,24.13
2023-02-21T15:49:18.469Z,24.22
2023-02-21T15:51:44.746Z,24.21
2023-02-21T15:54:37.756Z,24.27
2023-02-21T15:57:04.101Z,24.42
2023-02-21T15:59:31.427Z,24.36
2023-02-21T16:02:14.034Z,24.55
2023-02-21T16:04:49.263Z,24.57
2023-02-21T16:07:24.155Z,24.68
2023-02-21T16:09:58.815Z,24.88
2023-02-21T16:12:32.739Z,24.92
2023-02-21T16:15:13.788Z,24.76
2023-02-21T16:17:41.614Z,24.76
2023-02-21T16:20:21.195Z,24.69
2023-02-21T16:23:08.007Z,24.79
2023-02-21T16:25:34.764Z,24.87
2023-02-21T16:28:01.793Z,24.92
2023-02-21T16:30:31.706Z,24.91
2023-02-21T16:33:03.786Z,25.03
2023-02-21T16:35:30.859Z,25.16
2023-02-21T16:37:58.456Z,25.41
2023-02-21T16:40:28.292Z,25.64
2023-02-21T16:42:55.941Z,25.74
2023-02-21T16:45:22.903Z,25.60
2023-02-21T16:47:54.656Z,25.89
2023-02-21T16:50:29.248Z,26.16
2023-02-21T16:52:55.625Z,26.35
2023-02-21T16:55:21.819Z,26.28
2023-02-21T16:57:49.616Z,26.19
2023-02-21T17:00:21.531Z,26.23
2023-02-21T17:02:48.919Z,26.25
2023-02-21T17:05:16.057Z,26.28
2023-02-21T17:07:42.487Z,26.38
2023-02-21T17:10:10.404Z,26.28
2023-02-21T17:12:36.540Z,26.36
2023-02-21T17:15:03.647Z,26.47
2023-02-21T17:17:29.780Z,26.40
2023-02-21T17:19:56.205Z,26.59
2023-02-21T17:22:23.432Z,26.87
2023-02-21T17:24:49.866Z,27.00
2023-02-21T17:27:16.001Z,26.97
2023-02-21T17:29:42.076Z,26.87
2023-02-21T17:32:08.376Z,26.69
2023-02-21T17:34:36.279Z,26.74
2023-02-21T17:37:03.400Z,26.79
2023-02-21T17:39:29.717Z,26.79
2023-02-21T17:41:56.455Z,26.46
2023-02-21T17:44:23.849Z,26.20
2023-02-21T17:46:53.357Z,26.40
2023-02-21T17:49:22.277Z,26.38
2023-02-21T17:51:49.023Z,26.60
2023-02-21T17:54:21.647Z,26.53
2023-02-21T17:56:48.310Z,26.67
2023-02-21T17:59:17.275Z,26.64
2023-02-21T18:02:04.370Z,26.80
2023-02-21T18:04:30.870Z,27.03
2023-02-21T18:06:57.741Z,27.17
2023-02-21T18:09:24.154Z,27.05
2023-02-21T18:11:52.165Z,27.23
2023-02-21T18:14:19.730Z,27.26
2023-02-21T18:16:46.026Z,26.92
2023-02-21T18:19:12.576Z,26.84
2023-02-21T18:21:40.711Z,26.95
2023-02-21T18:24:08.888Z,27.25
2023-02-21T18:26:35.570Z,27.44
2023-02-21T18:29:02.063Z,27.56
2023-02-21T18:31:28.362Z,27.52
2023-02-21T18:33:54.552Z,27.57
2023-02-21T18:36:20.861Z,27.47
2023-02-21T18:38:48.986Z,27.60
2023-02-21T18:41:19.819Z,27.66
2023-02-21T18:43:46.189Z,27.77
2023-02-21T18:46:14.763Z,27.81
2023-02-21T18:48:43.290Z,27.90
2023-02-21T18:51:11.379Z,27.95
2023-02-21T18:53:38.515Z,28.25
2023-02-21T18:56:11.394Z,28.32
2023-02-21T18:58:38.503Z,28.42
2023-02-21T19:01:06.380Z,28.64
2023-02-21T19:03:33.052Z,28.73
2023-02-21T19:06:00.055Z,28.70
2023-02-21T19:08:26.550Z,28.74
2023-02-21T19:10:53.288Z,28.92
2023-02-21T19:13:19.880Z,29.03
2023-02-21T19:15:46.177Z,29.33
2023-02-21T19:18:12.715Z,29.52
2023-02-21T19:20:43.269Z,29.48
2023-02-21T19:23:09.811Z,29.46
2023-02-21T19:25:36.124Z,29.52
2023-02-21T19:28:02.720Z,29.56
2023-02-21T19:30:33.890Z,29.57
2023-02-21T19:33:01.297Z,29.51
2023-02-21T19:35:29.101Z,29.51
2023-02-21T19:37:58.738Z,29.52
2023-02-21T19:40:25.255Z,29.68
2023-02-21T19:42:51.602Z,29.80
2023-02-21T19:45:18.820Z,29.97
2023-02-21T19:47:45.810Z,29.98
2023-02-21T19:50:12.871Z,29.98
2023-02-21T19:52:39.784Z,30.15
2023-02-21T19:55:10.321Z,30.24
2023-02-21T19:57:36.902Z,30.30
2023-02-21T20:00:06.257Z,30.54
2023-02-21T20:02:32.548Z,30.37
2023-02-21T20:04:59.007Z,30.33
2023-02-21T20:07:25.600Z,30.36
2023-02-21T20:09:52.101Z,30.54
2023-02-21T20:12:22.192Z,30.55
2023-02-21T20:14:49.945Z,30.62
2023-02-21T20:17:17.482Z,30.53
2023-02-21T20:19:47.230Z,30.51
2023-02-21T20:22:13.474Z,30.55
2023-02-21T20:24:45.501Z,30.63
2023-02-21T20:27:13.656Z,30.78
2023-02-21T20:29:40.227Z,30.76
2023-02-21T20:32:07.235Z,31.09
2023-02-21T20:34:34.172Z,31.04
2023-02-21T20:37:00.351Z,30.98
2023-02-21T20:39:33.852Z,31.25
2023-02-21T20:42:05.908Z,31.20
2023-02-21T20:44:34.838Z,31.46
2023-02-21T20:47:01.842Z,31.57
2023-02-21T20:49:28.282Z,31.69
2023-02-21T20:51:56.440Z,31.90
2023-02-21T20:54:22.780Z,31.94
2023-02-21T20:56:56.169Z,31.96
2023-02-21T20:59:27.795Z,32.00
2023-02-21T21:01:54.974Z,32.11
2023-02-21T21:04:26.115Z,32.21
2023-02-21T21:06:55.384Z,32.52
2023-02-21T21:09:31.412Z,32.61
2023-02-21T21:12:00.280Z,32.76
2023-02-21T21:14:28.477Z,32.96
2023-02-21T21:16:56.305Z,33.04
2023-02-21T21:19:26.010Z,33.24
2023-02-21T21:21:53.381Z,33.34
2023-02-21T21:24:20.239Z,33.40
2023-02-21T21:26:52.549Z,33.58
2023-02-21T21:29:23.435Z,33.48
2023-02-21T21:31:51.750Z,33.78
2023-02-21T21:34:25.260Z,33.83
2023-02-21T21:37:02.056Z,34.08
2023-02-21T21:39:28.275Z,34.03
2023-02-21T21:42:04.690Z,34.15
2023-02-21T21:44:32.185Z,34.23
2023-02-21T21:47:00.386Z,34.20
2023-02-21T21:49:31.899Z,34.37
2023-02-21T21:51:59.303Z,34.33
2023-02-21T21:54:26.585Z,34.24
2023-02-21T21:56:54.607Z,34.46
2023-02-21T21:59:26.342Z,34.49
2023-02-21T22:01:53.468Z,34.62
2023-02-21T22:04:20.394Z,34.72
2023-02-21T22:06:46.846Z,34.78
2023-02-21T22:09:17.016Z,34.93
2023-02-21T22:11:45.136Z,35.09
2023-02-21T22:14:12.231Z,35.32
2023-02-21T22:16:41.375Z,35.28
2023-02-21T22:19:08.644Z,35.34
2023-02-21T22:21:35.691Z,35.45
2023-02-21T22:24:08.029Z,35.44
2023-02-21T22:26:34.049Z,35.50
2023-02-21T22:29:05.331Z,35.63
2023-02-21T22:31:34.770Z,35.65
2023-02-21T22:34:01.516Z,35.65
2023-02-21T22:36:32.239Z,35.70
2023-02-21T22:39:07.714Z,35.51
2023-02-21T22:41:34.131Z,35.60
2023-02-21T22:44:00.488Z,35.55
2023-02-21T22:46:28.566Z,35.50
2023-02-21T22:48:55.401Z,35.22
2023-02-21T22:51:27.334Z,35.21
2023-02-21T22:53:53.997Z,35.24
2023-02-21T22:56:24.013Z,35.14
2023-02-21T22:58:51.610Z,35.22
2023-02-21T23:01:20.318Z,35.18
2023-02-21T23:03:47.374Z,35.45
2023-02-21T23:06:14.166Z,35.57
2023-02-21T23:08:45.933Z,35.43
2023-02-21T23:11:20.680Z,35.70
2023-02-21T23:13:46.921Z,35.76
2023-02-21T23:16:21.311Z,35.83
2023-02-21T23:18:47.658Z,35.85
2023-02-21T23:21:14.039Z,36.03
2023-02-21T23:23:41.012Z,36.10
2023-02-21T23:26:08.138Z,36.05
2023-02-21T23:28:34.691Z,36.25
2023-02-21T23:31:00.884Z,36.29
2023-02-21T23:33:30.423Z,36.34
2023-02-21T23:35:57.323Z,36.26
2023-02-21T23:38:27.228Z,36.50
2023-02-21T23:40:56.438Z,36.54
2023-02-21T23:43:25.198Z,36.82
2023-02-21T23:45:52.314Z,37.03
2023-02-21T23:48:18.631Z,37.10
2023-02-21T23:50:46.399Z,37.09
2023-02-21T23:53:16.178Z,37.16
2023-02-21T23:55:42.968Z,37.20
2023-02-21T23:58:12.551Z,37.26
